sensor_id;sensor_type;location;lat;lon;timestamp;P1;durP1;ratioP1;P2;durP2;ratioP2
74530;SDS011;63010;55.668;37.878;2022-10-12T00:00:18;34.97;;;15.20;;
74530;SDS011;63010;55.668;37.878;2022-10-12T00:02:43;32.78;;;15.07;;
74530;SDS011;63010;55.668;37.878;2022-10-12T00:05:09;39.75;;;16.23;;
74530;SDS011;63010;55.668;37.878;2022-10-12T00:07:35;43.63;;;17.42;;
74530;SDS011;63010;55.668;37.878;2022-10-12T00:10:01;33.72;;;15.60;;
74530;SDS011;63010;55.668;37.878;2022-10-12T00:12:28;36.35;;;15.15;;
74530;SDS011;63010;55.668;37.878;2022-10-12T00:14:54;34.50;;;16.58;;
74530;SDS011;63010;55.668;37.878;2022-10-12T00:17:19;34.20;;;15.30;;
74530;SDS011;63010;55.668;37.878;2022-10-12T00:19:45;36.65;;;15.02;;
74530;SDS011;63010;55.668;37.878;2022-10-12T00:22:10;28.33;;;14.05;;
74530;SDS011;63010;55.668;37.878;2022-10-12T00:24:36;34.42;;;14.65;;
74530;SDS011;63010;55.668;37.878;2022-10-12T00:27:01;33.17;;;15.63;;
74530;SDS011;63010;55.668;37.878;2022-10-12T00:29:27;34.42;;;14.65;;
74530;SDS011;63010;55.668;37.878;2022-10-12T00:31:53;31.67;;;13.63;;
74530;SDS011;63010;55.668;37.878;2022-10-12T00:34:18;25.90;;;14.10;;
74530;SDS011;63010;55.668;37.878;2022-10-12T00:36:44;37.10;;;15.00;;
74530;SDS011;63010;55.668;37.878;2022-10-12T00:39:09;31.42;;;14.27;;
74530;SDS011;63010;55.668;37.878;2022-10-12T00:41:38;32.47;;;14.48;;
74530;SDS011;63010;55.668;37.878;2022-10-12T00:50:11;35.22;;;14.20;;
74530;SDS011;63010;55.668;37.878;2022-10-12T00:52:43;35.63;;;14.55;;
74530;SDS011;63010;55.668;37.878;2022-10-12T00:55:20;28.85;;;13.13;;
74530;SDS011;63010;55.668;37.878;2022-10-12T00:57:48;32.58;;;14.13;;
74530;SDS011;63010;55.668;37.878;2022-10-12T01:00:17;33.05;;;14.10;;
74530;SDS011;63010;55.668;37.878;2022-10-12T01:02:43;29.65;;;14.25;;
74530;SDS011;63010;55.668;37.878;2022-10-12T01:05:11;28.25;;;13.90;;
74530;SDS011;63010;55.668;37.878;2022-10-12T01:07:38;31.63;;;13.82;;
74530;SDS011;63010;55.668;37.878;2022-10-12T01:10:03;31.13;;;14.30;;
74530;SDS011;63010;55.668;37.878;2022-10-12T01:12:30;24.50;;;13.93;;
74530;SDS011;63010;55.668;37.878;2022-10-12T01:31:24;27.77;;;12.52;;
74530;SDS011;63010;55.668;37.878;2022-10-12T01:33:59;37.13;;;13.05;;
74530;SDS011;63010;55.668;37.878;2022-10-12T01:36:34;20.42;;;12.07;;
74530;SDS011;63010;55.668;37.878;2022-10-12T01:41:46;24.33;;;13.30;;
74530;SDS011;63010;55.668;37.878;2022-10-12T01:44:21;31.33;;;13.98;;
74530;SDS011;63010;55.668;37.878;2022-10-12T01:46:48;29.77;;;13.40;;
74530;SDS011;63010;55.668;37.878;2022-10-12T01:49:15;30.83;;;14.68;;
74530;SDS011;63010;55.668;37.878;2022-10-12T01:54:40;30.98;;;14.65;;
74530;SDS011;63010;55.668;37.878;2022-10-12T02:00:13;31.45;;;14.57;;
74530;SDS011;63010;55.668;37.878;2022-10-12T02:02:46;30.92;;;15.40;;
74530;SDS011;63010;55.668;37.878;2022-10-12T02:10:37;30.90;;;15.15;;
74530;SDS011;63010;55.668;37.878;2022-10-12T02:13:09;33.15;;;16.38;;
74530;SDS011;63010;55.668;37.878;2022-10-12T02:15:37;40.42;;;16.70;;
74530;SDS011;63010;55.668;37.878;2022-10-12T02:18:05;31.52;;;15.40;;
74530;SDS011;63010;55.668;37.878;2022-10-12T02:20:33;32.33;;;15.27;;
74530;SDS011;63010;55.668;37.878;2022-10-12T02:23:20;32.65;;;15.70;;
74530;SDS011;63010;55.668;37.878;2022-10-12T02:25:49;30.30;;;15.05;;
74530;SDS011;63010;55.668;37.878;2022-10-12T02:28:17;30.25;;;14.85;;
74530;SDS011;63010;55.668;37.878;2022-10-12T02:30:50;37.25;;;17.27;;
74530;SDS011;63010;55.668;37.878;2022-10-12T02:36:15;33.15;;;16.63;;
74530;SDS011;63010;55.668;37.878;2022-10-12T02:39:01;34.63;;;16.05;;
74530;SDS011;63010;55.668;37.878;2022-10-12T02:41:45;33.28;;;16.17;;
74530;SDS011;63010;55.668;37.878;2022-10-12T02:44:14;37.42;;;16.40;;
74530;SDS011;63010;55.668;37.878;2022-10-12T02:46:43;30.77;;;15.38;;
74530;SDS011;63010;55.668;37.878;2022-10-12T02:49:12;40.67;;;16.30;;
74530;SDS011;63010;55.668;37.878;2022-10-12T02:51:39;30.70;;;15.85;;
74530;SDS011;63010;55.668;37.878;2022-10-12T02:54:07;33.65;;;17.80;;
74530;SDS011;63010;55.668;37.878;2022-10-12T02:56:33;36.70;;;16.25;;
74530;SDS011;63010;55.668;37.878;2022-10-12T02:58:58;35.38;;;16.75;;
74530;SDS011;63010;55.668;37.878;2022-10-12T03:01:24;39.47;;;15.90;;
74530;SDS011;63010;55.668;37.878;2022-10-12T03:03:50;39.17;;;16.27;;
74530;SDS011;63010;55.668;37.878;2022-10-12T03:06:15;42.65;;;17.17;;
74530;SDS011;63010;55.668;37.878;2022-10-12T03:08:41;35.33;;;16.38;;
74530;SDS011;63010;55.668;37.878;2022-10-12T03:11:07;31.25;;;17.10;;
74530;SDS011;63010;55.668;37.878;2022-10-12T03:13:36;36.33;;;17.48;;
74530;SDS011;63010;55.668;37.878;2022-10-12T03:16:02;35.85;;;16.27;;
74530;SDS011;63010;55.668;37.878;2022-10-12T03:18:29;42.42;;;16.92;;
74530;SDS011;63010;55.668;37.878;2022-10-12T03:20:54;39.85;;;18.02;;
74530;SDS011;63010;55.668;37.878;2022-10-12T03:23:20;40.10;;;18.98;;
74530;SDS011;63010;55.668;37.878;2022-10-12T03:25:45;40.58;;;20.95;;
74530;SDS011;63010;55.668;37.878;2022-10-12T03:28:11;45.58;;;21.33;;
74530;SDS011;63010;55.668;37.878;2022-10-12T03:30:36;42.15;;;22.38;;
74530;SDS011;63010;55.668;37.878;2022-10-12T03:33:02;44.72;;;21.20;;
74530;SDS011;63010;55.668;37.878;2022-10-12T03:35:28;52.13;;;21.80;;
74530;SDS011;63010;55.668;37.878;2022-10-12T03:37:53;44.53;;;21.70;;
74530;SDS011;63010;55.668;37.878;2022-10-12T03:40:19;43.88;;;22.58;;
74530;SDS011;63010;55.668;37.878;2022-10-12T03:42:44;44.67;;;22.10;;
74530;SDS011;63010;55.668;37.878;2022-10-12T03:45:10;52.80;;;24.40;;
74530;SDS011;63010;55.668;37.878;2022-10-12T03:47:36;46.45;;;22.42;;
74530;SDS011;63010;55.668;37.878;2022-10-12T03:50:02;52.35;;;25.05;;
74530;SDS011;63010;55.668;37.878;2022-10-12T03:52:28;48.40;;;26.85;;
74530;SDS011;63010;55.668;37.878;2022-10-12T03:54:54;55.97;;;29.73;;
74530;SDS011;63010;55.668;37.878;2022-10-12T03:57:19;58.55;;;30.45;;
74530;SDS011;63010;55.668;37.878;2022-10-12T03:59:45;56.13;;;29.23;;
74530;SDS011;63010;55.668;37.878;2022-10-12T04:02:10;59.08;;;27.98;;
74530;SDS011;63010;55.668;37.878;2022-10-12T04:04:36;59.75;;;29.92;;
74530;SDS011;63010;55.668;37.878;2022-10-12T04:07:02;60.13;;;31.98;;
74530;SDS011;63010;55.668;37.878;2022-10-12T04:09:27;54.55;;;30.33;;
74530;SDS011;63010;55.668;37.878;2022-10-12T04:11:53;52.83;;;26.90;;
74530;SDS011;63010;55.668;37.878;2022-10-12T04:14:18;49.00;;;25.90;;
74530;SDS011;63010;55.668;37.878;2022-10-12T04:16:44;45.42;;;26.05;;
74530;SDS011;63010;55.668;37.878;2022-10-12T04:19:12;47.47;;;27.33;;
74530;SDS011;63010;55.668;37.878;2022-10-12T04:21:38;42.70;;;26.38;;
74530;SDS011;63010;55.668;37.878;2022-10-12T04:24:05;45.08;;;26.25;;
74530;SDS011;63010;55.668;37.878;2022-10-12T04:26:31;48.78;;;25.27;;
74530;SDS011;63010;55.668;37.878;2022-10-12T04:28:57;49.00;;;25.88;;
74530;SDS011;63010;55.668;37.878;2022-10-12T04:31:22;45.38;;;23.15;;
74530;SDS011;63010;55.668;37.878;2022-10-12T04:33:48;49.65;;;23.75;;
74530;SDS011;63010;55.668;37.878;2022-10-12T04:36:20;46.33;;;25.02;;
74530;SDS011;63010;55.668;37.878;2022-10-12T04:38:46;40.45;;;24.23;;
74530;SDS011;63010;55.668;37.878;2022-10-12T04:41:12;46.67;;;25.25;;
74530;SDS011;63010;55.668;37.878;2022-10-12T04:43:37;50.33;;;25.02;;
74530;SDS011;63010;55.668;37.878;2022-10-12T04:46:03;49.50;;;24.02;;
74530;SDS011;63010;55.668;37.878;2022-10-12T04:48:28;47.55;;;24.77;;
74530;SDS011;63010;55.668;37.878;2022-10-12T04:50:54;58.55;;;28.52;;
74530;SDS011;63010;55.668;37.878;2022-10-12T04:53:19;73.28;;;34.72;;
74530;SDS011;63010;55.668;37.878;2022-10-12T04:55:45;76.35;;;38.03;;
74530;SDS011;63010;55.668;37.878;2022-10-12T04:58:10;72.60;;;35.60;;
74530;SDS011;63010;55.668;37.878;2022-10-12T05:00:36;69.93;;;33.05;;
74530;SDS011;63010;55.668;37.878;2022-10-12T05:03:02;66.00;;;30.50;;
74530;SDS011;63010;55.668;37.878;2022-10-12T05:05:28;58.92;;;29.13;;
74530;SDS011;63010;55.668;37.878;2022-10-12T05:07:53;54.20;;;26.45;;
74530;SDS011;63010;55.668;37.878;2022-10-12T05:10:19;50.05;;;23.55;;
74530;SDS011;63010;55.668;37.878;2022-10-12T05:12:44;50.58;;;22.80;;
74530;SDS011;63010;55.668;37.878;2022-10-12T05:15:10;56.10;;;25.38;;
74530;SDS011;63010;55.668;37.878;2022-10-12T05:17:35;56.88;;;24.90;;
74530;SDS011;63010;55.668;37.878;2022-10-12T05:20:02;55.67;;;25.23;;
74530;SDS011;63010;55.668;37.878;2022-10-12T05:22:30;54.55;;;25.83;;
74530;SDS011;63010;55.668;37.878;2022-10-12T05:24:55;64.50;;;26.42;;
74530;SDS011;63010;55.668;37.878;2022-10-12T05:27:21;56.28;;;28.02;;
74530;SDS011;63010;55.668;37.878;2022-10-12T05:29:46;49.30;;;23.75;;
74530;SDS011;63010;55.668;37.878;2022-10-12T05:32:12;50.40;;;24.58;;
74530;SDS011;63010;55.668;37.878;2022-10-12T05:34:37;53.08;;;25.58;;
74530;SDS011;63010;55.668;37.878;2022-10-12T05:37:03;53.50;;;25.25;;
74530;SDS011;63010;55.668;37.878;2022-10-12T05:39:29;56.45;;;24.55;;
74530;SDS011;63010;55.668;37.878;2022-10-12T05:41:54;65.88;;;32.78;;
74530;SDS011;63010;55.668;37.878;2022-10-12T05:44:20;53.85;;;24.70;;
74530;SDS011;63010;55.668;37.878;2022-10-12T05:46:46;63.85;;;25.88;;
74530;SDS011;63010;55.668;37.878;2022-10-12T05:49:11;59.50;;;27.90;;
74530;SDS011;63010;55.668;37.878;2022-10-12T05:51:37;61.88;;;27.80;;
74530;SDS011;63010;55.668;37.878;2022-10-12T05:54:03;53.75;;;28.67;;
74530;SDS011;63010;55.668;37.878;2022-10-12T05:56:29;56.63;;;27.95;;
74530;SDS011;63010;55.668;37.878;2022-10-12T05:58:55;61.60;;;28.20;;
74530;SDS011;63010;55.668;37.878;2022-10-12T06:01:20;56.88;;;26.20;;
74530;SDS011;63010;55.668;37.878;2022-10-12T06:03:46;56.65;;;27.83;;
74530;SDS011;63010;55.668;37.878;2022-10-12T06:06:12;49.85;;;24.42;;
74530;SDS011;63010;55.668;37.878;2022-10-12T06:08:37;51.67;;;25.17;;
74530;SDS011;63010;55.668;37.878;2022-10-12T06:11:03;43.47;;;23.58;;
74530;SDS011;63010;55.668;37.878;2022-10-12T06:13:28;47.38;;;22.65;;
74530;SDS011;63010;55.668;37.878;2022-10-12T06:15:54;51.03;;;23.85;;
74530;SDS011;63010;55.668;37.878;2022-10-12T06:18:20;44.13;;;21.58;;
74530;SDS011;63010;55.668;37.878;2022-10-12T06:20:54;46.95;;;20.92;;
74530;SDS011;63010;55.668;37.878;2022-10-12T06:23:20;39.85;;;19.80;;
74530;SDS011;63010;55.668;37.878;2022-10-12T06:25:46;40.53;;;18.70;;
74530;SDS011;63010;55.668;37.878;2022-10-12T06:28:16;32.33;;;16.83;;
74530;SDS011;63010;55.668;37.878;2022-10-12T06:30:51;30.15;;;16.50;;
74530;SDS011;63010;55.668;37.878;2022-10-12T06:33:21;28.45;;;15.80;;
74530;SDS011;63010;55.668;37.878;2022-10-12T06:35:47;33.90;;;16.05;;
74530;SDS011;63010;55.668;37.878;2022-10-12T06:38:13;28.00;;;16.00;;
74530;SDS011;63010;55.668;37.878;2022-10-12T06:40:38;26.90;;;15.65;;
74530;SDS011;63010;55.668;37.878;2022-10-12T06:43:04;30.15;;;16.70;;
74530;SDS011;63010;55.668;37.878;2022-10-12T06:45:30;31.38;;;16.00;;
74530;SDS011;63010;55.668;37.878;2022-10-12T06:47:56;30.65;;;16.58;;
74530;SDS011;63010;55.668;37.878;2022-10-12T06:50:22;29.25;;;15.43;;
74530;SDS011;63010;55.668;37.878;2022-10-12T06:52:49;27.80;;;15.70;;
74530;SDS011;63010;55.668;37.878;2022-10-12T06:55:15;33.15;;;16.77;;
74530;SDS011;63010;55.668;37.878;2022-10-12T06:57:40;34.35;;;16.02;;
74530;SDS011;63010;55.668;37.878;2022-10-12T07:00:06;29.50;;;16.02;;
74530;SDS011;63010;55.668;37.878;2022-10-12T07:02:33;36.67;;;16.50;;
74530;SDS011;63010;55.668;37.878;2022-10-12T07:04:59;37.63;;;16.77;;
74530;SDS011;63010;55.668;37.878;2022-10-12T07:07:25;30.40;;;17.17;;
74530;SDS011;63010;55.668;37.878;2022-10-12T07:09:54;28.45;;;15.93;;
74530;SDS011;63010;55.668;37.878;2022-10-12T07:12:19;25.73;;;14.80;;
74530;SDS011;63010;55.668;37.878;2022-10-12T07:14:45;28.50;;;14.50;;
74530;SDS011;63010;55.668;37.878;2022-10-12T07:17:10;42.15;;;14.75;;
74530;SDS011;63010;55.668;37.878;2022-10-12T07:19:36;21.23;;;12.18;;
74530;SDS011;63010;55.668;37.878;2022-10-12T07:22:01;20.80;;;10.25;;
74530;SDS011;63010;55.668;37.878;2022-10-12T07:24:27;24.45;;;11.25;;
74530;SDS011;63010;55.668;37.878;2022-10-12T07:27:04;13.15;;;6.93;;
74530;SDS011;63010;55.668;37.878;2022-10-12T07:29:32;21.80;;;8.75;;
74530;SDS011;63010;55.668;37.878;2022-10-12T07:31:59;24.25;;;8.63;;
74530;SDS011;63010;55.668;37.878;2022-10-12T07:34:25;11.98;;;6.63;;
74530;SDS011;63010;55.668;37.878;2022-10-12T07:36:51;19.55;;;7.32;;
74530;SDS011;63010;55.668;37.878;2022-10-12T07:39:17;12.43;;;6.35;;
74530;SDS011;63010;55.668;37.878;2022-10-12T07:41:43;15.13;;;7.45;;
74530;SDS011;63010;55.668;37.878;2022-10-12T07:44:08;12.43;;;6.60;;
74530;SDS011;63010;55.668;37.878;2022-10-12T07:46:34;14.18;;;6.93;;
74530;SDS011;63010;55.668;37.878;2022-10-12T07:49:00;17.75;;;7.07;;
74530;SDS011;63010;55.668;37.878;2022-10-12T07:51:26;12.45;;;6.85;;
74530;SDS011;63010;55.668;37.878;2022-10-12T07:53:52;16.98;;;7.50;;
74530;SDS011;63010;55.668;37.878;2022-10-12T07:56:17;13.80;;;8.00;;
74530;SDS011;63010;55.668;37.878;2022-10-12T07:58:50;17.92;;;7.63;;
74530;SDS011;63010;55.668;37.878;2022-10-12T08:01:17;13.45;;;7.53;;
74530;SDS011;63010;55.668;37.878;2022-10-12T08:03:44;15.85;;;7.43;;
74530;SDS011;63010;55.668;37.878;2022-10-12T08:06:11;13.90;;;7.22;;
74530;SDS011;63010;55.668;37.878;2022-10-12T08:08:39;14.07;;;7.32;;
74530;SDS011;63010;55.668;37.878;2022-10-12T08:11:05;12.55;;;7.25;;
74530;SDS011;63010;55.668;37.878;2022-10-12T08:15:58;16.00;;;7.15;;
74530;SDS011;63010;55.668;37.878;2022-10-12T08:18:23;12.65;;;7.53;;
74530;SDS011;63010;55.668;37.878;2022-10-12T08:20:49;11.13;;;6.95;;
74530;SDS011;63010;55.668;37.878;2022-10-12T08:23:14;11.07;;;5.38;;
74530;SDS011;63010;55.668;37.878;2022-10-12T08:25:40;9.10;;;5.95;;
74530;SDS011;63010;55.668;37.878;2022-10-12T08:28:05;10.02;;;5.32;;
74530;SDS011;63010;55.668;37.878;2022-10-12T08:30:31;6.78;;;4.50;;
74530;SDS011;63010;55.668;37.878;2022-10-12T08:32:58;10.25;;;5.32;;
74530;SDS011;63010;55.668;37.878;2022-10-12T08:35:24;10.90;;;4.60;;
74530;SDS011;63010;55.668;37.878;2022-10-12T08:37:49;11.75;;;5.03;;
74530;SDS011;63010;55.668;37.878;2022-10-12T08:40:16;7.57;;;4.95;;
74530;SDS011;63010;55.668;37.878;2022-10-12T08:48:08;8.18;;;3.45;;
74530;SDS011;63010;55.668;37.878;2022-10-12T08:50:40;6.80;;;3.50;;
74530;SDS011;63010;55.668;37.878;2022-10-12T08:53:19;5.78;;;2.70;;
74530;SDS011;63010;55.668;37.878;2022-10-12T08:55:52;4.80;;;2.40;;
74530;SDS011;63010;55.668;37.878;2022-10-12T08:58:25;5.78;;;2.88;;
74530;SDS011;63010;55.668;37.878;2022-10-12T09:00:56;6.55;;;3.35;;
74530;SDS011;63010;55.668;37.878;2022-10-12T09:03:36;10.75;;;4.13;;
74530;SDS011;63010;55.668;37.878;2022-10-12T09:11:51;6.25;;;2.72;;
74530;SDS011;63010;55.668;37.878;2022-10-12T09:14:38;8.00;;;3.20;;
74530;SDS011;63010;55.668;37.878;2022-10-12T09:22:42;5.35;;;2.85;;
74530;SDS011;63010;55.668;37.878;2022-10-12T09:25:12;6.60;;;3.15;;
74530;SDS011;63010;55.668;37.878;2022-10-12T09:27:39;7.03;;;2.90;;
74530;SDS011;63010;55.668;37.878;2022-10-12T09:30:08;4.65;;;2.60;;
74530;SDS011;63010;55.668;37.878;2022-10-12T09:35:41;7.50;;;2.88;;
74530;SDS011;63010;55.668;37.878;2022-10-12T09:38:09;4.03;;;2.53;;
74530;SDS011;63010;55.668;37.878;2022-10-12T09:40:35;7.18;;;2.72;;
74530;SDS011;63010;55.668;37.878;2022-10-12T09:43:02;9.85;;;3.30;;
74530;SDS011;63010;55.668;37.878;2022-10-12T09:45:29;5.50;;;2.88;;
74530;SDS011;63010;55.668;37.878;2022-10-12T09:50:50;16.05;;;4.55;;
74530;SDS011;63010;55.668;37.878;2022-10-12T09:53:30;8.13;;;4.70;;
74530;SDS011;63010;55.668;37.878;2022-10-12T09:56:21;10.85;;;4.15;;
74530;SDS011;63010;55.668;37.878;2022-10-12T09:58:52;9.43;;;3.58;;
74530;SDS011;63010;55.668;37.878;2022-10-12T10:01:24;6.63;;;3.90;;
74530;SDS011;63010;55.668;37.878;2022-10-12T10:04:51;11.65;;;4.40;;
74530;SDS011;63010;55.668;37.878;2022-10-12T10:06:49;8.68;;;4.78;;
74530;SDS011;63010;55.668;37.878;2022-10-12T10:09:25;10.75;;;5.15;;
74530;SDS011;63010;55.668;37.878;2022-10-12T10:11:50;8.60;;;3.75;;
74530;SDS011;63010;55.668;37.878;2022-10-12T10:14:16;6.30;;;2.92;;
74530;SDS011;63010;55.668;37.878;2022-10-12T10:16:48;5.97;;;2.42;;
74530;SDS011;63010;55.668;37.878;2022-10-12T10:19:16;4.70;;;1.83;;
74530;SDS011;63010;55.668;37.878;2022-10-12T10:21:44;5.95;;;2.40;;
74530;SDS011;63010;55.668;37.878;2022-10-12T10:24:20;5.30;;;2.58;;
74530;SDS011;63010;55.668;37.878;2022-10-12T10:32:15;4.15;;;2.30;;
74530;SDS011;63010;55.668;37.878;2022-10-12T10:35:00;3.55;;;2.33;;
74530;SDS011;63010;55.668;37.878;2022-10-12T10:37:42;4.88;;;2.60;;
74530;SDS011;63010;55.668;37.878;2022-10-12T10:40:23;5.40;;;2.50;;
74530;SDS011;63010;55.668;37.878;2022-10-12T10:42:57;5.63;;;2.42;;
74530;SDS011;63010;55.668;37.878;2022-10-12T10:45:32;7.50;;;3.63;;
74530;SDS011;63010;55.668;37.878;2022-10-12T10:48:07;6.50;;;2.60;;
74530;SDS011;63010;55.668;37.878;2022-10-12T10:50:40;6.82;;;2.85;;
74530;SDS011;63010;55.668;37.878;2022-10-12T10:53:16;9.90;;;3.33;;
74530;SDS011;63010;55.668;37.878;2022-10-12T10:56:02;7.75;;;3.28;;
74530;SDS011;63010;55.668;37.878;2022-10-12T10:58:51;6.45;;;3.55;;
74530;SDS011;63010;55.668;37.878;2022-10-12T11:01:20;6.80;;;3.67;;
74530;SDS011;63010;55.668;37.878;2022-10-12T11:03:55;7.30;;;4.13;;
74530;SDS011;63010;55.668;37.878;2022-10-12T11:06:36;7.07;;;3.42;;
74530;SDS011;63010;55.668;37.878;2022-10-12T11:09:26;5.90;;;2.97;;
74530;SDS011;63010;55.668;37.878;2022-10-12T11:11:58;7.85;;;3.20;;
74530;SDS011;63010;55.668;37.878;2022-10-12T11:16:59;8.57;;;3.92;;
74530;SDS011;63010;55.668;37.878;2022-10-12T11:22:32;8.80;;;3.30;;
74530;SDS011;63010;55.668;37.878;2022-10-12T11:25:23;6.45;;;3.67;;
74530;SDS011;63010;55.668;37.878;2022-10-12T11:27:53;8.35;;;3.95;;
74530;SDS011;63010;55.668;37.878;2022-10-12T11:30:20;10.35;;;4.00;;
74530;SDS011;63010;55.668;37.878;2022-10-12T11:32:50;6.28;;;3.38;;
74530;SDS011;63010;55.668;37.878;2022-10-12T11:37:54;9.75;;;4.07;;
74530;SDS011;63010;55.668;37.878;2022-10-12T11:40:43;8.95;;;4.55;;
74530;SDS011;63010;55.668;37.878;2022-10-12T11:43:13;9.77;;;4.45;;
74530;SDS011;63010;55.668;37.878;2022-10-12T11:45:43;9.77;;;4.82;;
74530;SDS011;63010;55.668;37.878;2022-10-12T11:48:14;11.57;;;5.25;;
74530;SDS011;63010;55.668;37.878;2022-10-12T11:50:46;11.77;;;5.35;;
74530;SDS011;63010;55.668;37.878;2022-10-12T11:53:38;8.82;;;4.40;;
74530;SDS011;63010;55.668;37.878;2022-10-12T11:58:42;9.48;;;4.68;;
74530;SDS011;63010;55.668;37.878;2022-10-12T12:09:35;9.52;;;4.95;;
74530;SDS011;63010;55.668;37.878;2022-10-12T12:19:42;7.53;;;4.65;;
74530;SDS011;63010;55.668;37.878;2022-10-12T12:22:12;10.15;;;4.78;;
74530;SDS011;63010;55.668;37.878;2022-10-12T12:27:39;9.45;;;4.88;;
74530;SDS011;63010;55.668;37.878;2022-10-12T12:32:40;11.90;;;5.88;;
74530;SDS011;63010;55.668;37.878;2022-10-12T12:35:36;11.10;;;4.53;;
74530;SDS011;63010;55.668;37.878;2022-10-12T12:40:35;12.70;;;4.00;;
74530;SDS011;63010;55.668;37.878;2022-10-12T12:43:18;8.88;;;4.13;;
74530;SDS011;63010;55.668;37.878;2022-10-12T12:51:21;8.68;;;5.15;;
74530;SDS011;63010;55.668;37.878;2022-10-12T12:53:57;11.27;;;4.90;;
74530;SDS011;63010;55.668;37.878;2022-10-12T12:56:50;10.13;;;4.68;;
74530;SDS011;63010;55.668;37.878;2022-10-12T12:59:34;11.45;;;5.32;;
74530;SDS011;63010;55.668;37.878;2022-10-12T13:07:30;7.78;;;4.35;;
74530;SDS011;63010;55.668;37.878;2022-10-12T13:10:14;11.85;;;5.88;;
74530;SDS011;63010;55.668;37.878;2022-10-12T13:21:10;9.32;;;4.47;;
74530;SDS011;63010;55.668;37.878;2022-10-12T13:23:40;7.63;;;3.95;;
74530;SDS011;63010;55.668;37.878;2022-10-12T13:26:11;7.07;;;4.30;;
74530;SDS011;63010;55.668;37.878;2022-10-12T13:28:41;7.05;;;3.72;;
74530;SDS011;63010;55.668;37.878;2022-10-12T13:33:57;9.43;;;4.13;;
74530;SDS011;63010;55.668;37.878;2022-10-12T13:39:25;7.07;;;3.47;;
74530;SDS011;63010;55.668;37.878;2022-10-12T13:41:56;8.50;;;3.50;;
74530;SDS011;63010;55.668;37.878;2022-10-12T13:44:26;8.07;;;3.67;;
74530;SDS011;63010;55.668;37.878;2022-10-12T13:46:55;6.82;;;4.00;;
74530;SDS011;63010;55.668;37.878;2022-10-12T13:49:27;6.80;;;3.97;;
74530;SDS011;63010;55.668;37.878;2022-10-12T13:51:55;7.95;;;3.42;;
74530;SDS011;63010;55.668;37.878;2022-10-12T13:54:36;7.80;;;3.30;;
74530;SDS011;63010;55.668;37.878;2022-10-12T13:57:05;8.70;;;3.38;;
74530;SDS011;63010;55.668;37.878;2022-10-12T13:59:41;7.30;;;3.28;;
74530;SDS011;63010;55.668;37.878;2022-10-12T14:02:19;7.35;;;3.80;;
74530;SDS011;63010;55.668;37.878;2022-10-12T14:04:51;7.35;;;3.05;;
74530;SDS011;63010;55.668;37.878;2022-10-12T14:07:25;7.95;;;3.58;;
74530;SDS011;63010;55.668;37.878;2022-10-12T14:10:06;9.77;;;4.30;;
74530;SDS011;63010;55.668;37.878;2022-10-12T14:12:40;7.53;;;3.80;;
74530;SDS011;63010;55.668;37.878;2022-10-12T14:15:09;9.88;;;3.70;;
74530;SDS011;63010;55.668;37.878;2022-10-12T14:17:41;5.95;;;3.30;;
74530;SDS011;63010;55.668;37.878;2022-10-12T14:20:16;5.35;;;3.13;;
74530;SDS011;63010;55.668;37.878;2022-10-12T14:22:50;7.93;;;3.97;;
74530;SDS011;63010;55.668;37.878;2022-10-12T14:25:17;6.13;;;3.75;;
74530;SDS011;63010;55.668;37.878;2022-10-12T14:27:55;6.88;;;4.18;;
74530;SDS011;63010;55.668;37.878;2022-10-12T14:30:29;6.43;;;3.80;;
74530;SDS011;63010;55.668;37.878;2022-10-12T14:33:18;5.97;;;3.88;;
74530;SDS011;63010;55.668;37.878;2022-10-12T14:35:46;7.72;;;3.72;;
74530;SDS011;63010;55.668;37.878;2022-10-12T14:38:29;7.03;;;3.90;;
74530;SDS011;63010;55.668;37.878;2022-10-12T14:49:18;8.80;;;5.00;;
74530;SDS011;63010;55.668;37.878;2022-10-12T14:51:45;10.75;;;5.15;;
74530;SDS011;63010;55.668;37.878;2022-10-12T14:54:13;9.60;;;4.47;;
74530;SDS011;63010;55.668;37.878;2022-10-12T14:56:39;7.57;;;4.45;;
74530;SDS011;63010;55.668;37.878;2022-10-12T14:59:05;6.18;;;3.75;;
74530;SDS011;63010;55.668;37.878;2022-10-12T15:01:30;7.32;;;4.15;;
74530;SDS011;63010;55.668;37.878;2022-10-12T15:03:56;7.95;;;4.55;;
74530;SDS011;63010;55.668;37.878;2022-10-12T15:06:21;10.50;;;4.47;;
74530;SDS011;63010;55.668;37.878;2022-10-12T15:08:47;7.20;;;4.45;;
74530;SDS011;63010;55.668;37.878;2022-10-12T15:11:13;8.35;;;4.38;;
74530;SDS011;63010;55.668;37.878;2022-10-12T15:13:40;6.70;;;4.80;;
74530;SDS011;63010;55.668;37.878;2022-10-12T15:16:24;9.05;;;5.25;;
74530;SDS011;63010;55.668;37.878;2022-10-12T15:18:51;6.85;;;4.45;;
74530;SDS011;63010;55.668;37.878;2022-10-12T15:21:17;8.52;;;4.50;;
74530;SDS011;63010;55.668;37.878;2022-10-12T15:23:43;9.57;;;5.35;;
74530;SDS011;63010;55.668;37.878;2022-10-12T15:26:13;10.50;;;5.10;;
74530;SDS011;63010;55.668;37.878;2022-10-12T15:28:40;15.73;;;6.28;;
74530;SDS011;63010;55.668;37.878;2022-10-12T15:31:13;9.05;;;4.53;;
74530;SDS011;63010;55.668;37.878;2022-10-12T15:33:40;8.07;;;4.72;;
74530;SDS011;63010;55.668;37.878;2022-10-12T15:36:07;7.28;;;5.20;;
74530;SDS011;63010;55.668;37.878;2022-10-12T15:38:33;7.70;;;4.97;;
74530;SDS011;63010;55.668;37.878;2022-10-12T15:40:59;10.45;;;4.75;;
74530;SDS011;63010;55.668;37.878;2022-10-12T15:43:25;11.30;;;4.43;;
74530;SDS011;63010;55.668;37.878;2022-10-12T15:45:51;10.15;;;4.93;;
74530;SDS011;63010;55.668;37.878;2022-10-12T15:48:17;10.93;;;5.05;;
74530;SDS011;63010;55.668;37.878;2022-10-12T15:50:44;9.55;;;5.07;;
74530;SDS011;63010;55.668;37.878;2022-10-12T15:53:21;8.68;;;4.95;;
74530;SDS011;63010;55.668;37.878;2022-10-12T15:55:48;7.60;;;5.15;;
74530;SDS011;63010;55.668;37.878;2022-10-12T15:58:14;7.50;;;4.25;;
74530;SDS011;63010;55.668;37.878;2022-10-12T16:00:40;10.25;;;4.70;;
74530;SDS011;63010;55.668;37.878;2022-10-12T16:03:06;8.15;;;4.35;;
74530;SDS011;63010;55.668;37.878;2022-10-12T16:05:37;7.45;;;4.45;;
74530;SDS011;63010;55.668;37.878;2022-10-12T16:08:03;8.65;;;4.57;;
74530;SDS011;63010;55.668;37.878;2022-10-12T16:10:31;8.25;;;4.30;;
74530;SDS011;63010;55.668;37.878;2022-10-12T16:13:04;10.73;;;4.70;;
74530;SDS011;63010;55.668;37.878;2022-10-12T16:15:32;11.80;;;4.88;;
74530;SDS011;63010;55.668;37.878;2022-10-12T16:17:59;9.55;;;4.30;;
74530;SDS011;63010;55.668;37.878;2022-10-12T16:20:27;9.20;;;4.43;;
74530;SDS011;63010;55.668;37.878;2022-10-12T16:22:54;8.52;;;4.38;;
74530;SDS011;63010;55.668;37.878;2022-10-12T16:25:20;7.22;;;4.25;;
74530;SDS011;63010;55.668;37.878;2022-10-12T16:27:51;8.68;;;4.32;;
74530;SDS011;63010;55.668;37.878;2022-10-12T16:30:20;6.82;;;4.32;;
74530;SDS011;63010;55.668;37.878;2022-10-12T16:32:46;9.05;;;4.30;;
74530;SDS011;63010;55.668;37.878;2022-10-12T16:35:12;11.52;;;4.63;;
74530;SDS011;63010;55.668;37.878;2022-10-12T16:37:38;7.70;;;4.43;;
74530;SDS011;63010;55.668;37.878;2022-10-12T16:40:04;8.52;;;4.78;;
74530;SDS011;63010;55.668;37.878;2022-10-12T16:42:31;9.48;;;4.43;;
74530;SDS011;63010;55.668;37.878;2022-10-12T16:44:56;9.07;;;4.53;;
74530;SDS011;63010;55.668;37.878;2022-10-12T16:47:22;10.73;;;4.55;;
74530;SDS011;63010;55.668;37.878;2022-10-12T16:49:49;10.43;;;5.18;;